createdAt,value
2019-04-27T00:01:45.317Z,20.00
2019-04-27T00:04:34.115Z,19.90
2019-04-27T00:07:56.224Z,19.90
2019-04-27T00:10:37.872Z,19.80
2019-04-27T00:13:08.050Z,19.70
2019-04-27T00:16:13.474Z,19.60
2019-04-27T00:19:05.330Z,19.50
2019-04-27T00:21:40.542Z,19.50
2019-04-27T00:24:10.796Z,19.40
2019-04-27T00:26:40.538Z,19.30
2019-04-27T00:29:10.834Z,19.30
2019-04-27T00:31:40.514Z,19.30
2019-04-27T00:34:10.178Z,19.30
2019-04-27T00:37:07.625Z,19.20
2019-04-27T00:39:53.468Z,19.20
2019-04-27T00:42:23.225Z,19.10
2019-04-27T00:44:54.184Z,19.10
2019-04-27T00:47:26.319Z,19.10
2019-04-27T00:49:56.293Z,19.10
2019-04-27T00:52:25.975Z,19.10
2019-04-27T00:54:55.723Z,19.00
2019-04-27T00:57:37.007Z,19.00
2019-04-27T01:00:24.492Z,19.00
2019-04-27T01:02:57.735Z,18.90
2019-04-27T01:05:28.372Z,18.90
2019-04-27T01:07:58.039Z,18.90
2019-04-27T01:10:27.831Z,18.90
2019-04-27T01:12:57.471Z,18.80
2019-04-27T01:15:27.070Z,18.80
2019-04-27T01:18:11.155Z,18.70
2019-04-27T01:20:28.408Z,18.70
2019-04-27T01:22:59.779Z,18.70
2019-04-27T01:25:39.411Z,18.70
2019-04-27T01:28:22.563Z,18.70
2019-04-27T01:31:12.522Z,18.60
2019-04-27T01:33:42.160Z,18.70
2019-04-27T01:36:11.925Z,18.60
2019-04-27T01:38:41.560Z,18.60
2019-04-27T01:41:11.183Z,18.60
2019-04-27T01:43:40.871Z,18.60
2019-04-27T01:46:10.525Z,18.60
2019-04-27T01:48:40.167Z,18.50
2019-04-27T01:51:09.843Z,18.50
2019-04-27T01:53:39.503Z,18.40
2019-04-27T01:56:09.360Z,18.40
2019-04-27T01:58:39.351Z,18.40
2019-04-27T02:01:42.066Z,18.40
2019-04-27T02:04:33.400Z,18.30
2019-04-27T02:07:05.199Z,18.30
2019-04-27T02:09:34.771Z,18.20
2019-04-27T02:12:04.431Z,18.20
2019-04-27T02:14:34.097Z,18.10
2019-04-27T02:17:03.832Z,18.10
2019-04-27T02:19:33.519Z,18.10
2019-04-27T02:22:03.149Z,18.10
2019-04-27T02:24:32.866Z,18.00
2019-04-27T02:27:02.576Z,18.00
2019-04-27T02:29:51.028Z,17.90
2019-04-27T02:32:32.195Z,17.80
2019-04-27T02:35:03.803Z,17.80
2019-04-27T02:37:33.503Z,17.70
2019-04-27T02:40:04.135Z,17.70
2019-04-27T02:42:42.225Z,17.60
2019-04-27T02:45:12.230Z,17.60
2019-04-27T02:47:41.847Z,17.60
2019-04-27T02:50:11.544Z,17.50
2019-04-27T02:52:47.308Z,17.50
2019-04-27T02:55:19.760Z,17.40
2019-04-27T02:57:50.114Z,17.40
2019-04-27T03:00:20.641Z,17.40
2019-04-27T03:03:10.487Z,17.30
2019-04-27T03:05:40.215Z,17.30
2019-04-27T03:08:10.371Z,17.20
2019-04-27T03:10:40.294Z,17.10
2019-04-27T03:13:20.172Z,17.00
2019-04-27T03:16:20.301Z,16.90
2019-04-27T03:19:17.755Z,16.80
2019-04-27T03:22:00.132Z,16.70
2019-04-27T03:24:49.587Z,16.60
2019-04-27T03:27:20.273Z,16.50
2019-04-27T03:29:50.125Z,16.40
2019-04-27T03:32:22.676Z,16.30
2019-04-27T03:34:52.356Z,16.20
2019-04-27T03:37:22.625Z,16.20
2019-04-27T03:39:52.489Z,16.10
2019-04-27T03:42:22.443Z,16.00
2019-04-27T03:44:52.146Z,16.00
2019-04-27T03:47:21.868Z,15.90
2019-04-27T03:49:51.491Z,15.80
2019-04-27T03:52:30.017Z,15.70
2019-04-27T03:55:05.873Z,15.70
2019-04-27T03:57:50.038Z,15.60
2019-04-27T04:00:21.899Z,15.50
2019-04-27T04:03:10.792Z,15.50
2019-04-27T04:05:40.502Z,15.50
2019-04-27T04:08:10.850Z,15.40
2019-04-27T04:10:44.763Z,15.40
2019-04-27T04:13:22.740Z,15.40
2019-04-27T04:16:10.688Z,15.40
2019-04-27T04:19:01.075Z,15.40
2019-04-27T04:21:50.489Z,15.40
2019-04-27T04:24:20.406Z,15.30
2019-04-27T04:27:09.904Z,15.30
2019-04-27T04:29:40.206Z,15.20
2019-04-27T04:32:10.683Z,15.20
2019-04-27T04:34:40.656Z,15.30
2019-04-27T04:37:10.417Z,15.20
2019-04-27T04:39:40.560Z,15.20
2019-04-27T04:42:24.006Z,15.20
2019-04-27T04:45:11.027Z,15.20
2019-04-27T04:47:50.568Z,15.20
2019-04-27T04:50:22.820Z,15.10
2019-04-27T04:52:51.611Z,15.00
2019-04-27T04:55:21.385Z,15.00
2019-04-27T04:57:51.123Z,14.90
2019-04-27T05:00:21.064Z,14.80
2019-04-27T05:02:52.180Z,14.90
2019-04-27T05:05:21.928Z,14.90
2019-04-27T05:07:51.579Z,14.80
2019-04-27T05:10:21.307Z,14.90
2019-04-27T05:12:51.034Z,14.90
2019-04-27T05:15:20.841Z,15.00
2019-04-27T05:17:51.021Z,15.10
2019-04-27T05:20:44.967Z,15.10
2019-04-27T05:23:14.681Z,15.10
2019-04-27T05:25:44.379Z,15.10
2019-04-27T05:28:14.167Z,15.10
2019-04-27T05:30:43.915Z,15.10
2019-04-27T05:33:13.616Z,15.10
2019-04-27T05:35:43.321Z,15.10
2019-04-27T05:38:13.600Z,15.10
2019-04-27T05:41:02.718Z,15.10
2019-04-27T05:43:41.920Z,15.10
2019-04-27T05:46:49.339Z,15.10
2019-04-27T05:49:51.359Z,15.20
2019-04-27T05:52:46.583Z,15.20
2019-04-27T05:55:49.448Z,15.20
2019-04-27T05:58:19.626Z,15.10
2019-04-27T06:00:49.835Z,15.20
2019-04-27T06:03:39.710Z,15.20
2019-04-27T06:06:15.505Z,15.20
2019-04-27T06:08:49.350Z,15.20
2019-04-27T06:11:56.724Z,15.30
2019-04-27T06:14:20.906Z,15.30
2019-04-27T06:16:54.668Z,15.30
2019-04-27T06:19:29.123Z,15.30
2019-04-27T06:22:00.993Z,15.30
2019-04-27T06:24:32.926Z,15.20
2019-04-27T06:27:05.398Z,15.20
2019-04-27T06:29:40.589Z,15.20
2019-04-27T06:32:19.341Z,15.20
2019-04-27T06:34:43.829Z,15.20
2019-04-27T06:37:32.722Z,15.20
2019-04-27T06:40:05.783Z,15.20
2019-04-27T06:42:39.576Z,15.20
2019-04-27T06:45:09.955Z,15.30
2019-04-27T06:47:48.813Z,15.30
2019-04-27T06:50:19.607Z,15.40
2019-04-27T06:52:49.798Z,15.40
2019-04-27T06:55:19.710Z,15.40
2019-04-27T06:57:50.850Z,15.50
2019-04-27T07:00:20.903Z,15.50
2019-04-27T07:02:55.234Z,15.50
2019-04-27T07:05:29.791Z,15.50
2019-04-27T07:08:03.034Z,15.50
2019-04-27T07:10:35.591Z,15.50
2019-04-27T07:13:07.165Z,15.50
2019-04-27T07:15:51.725Z,15.60
2019-04-27T07:18:28.593Z,15.50
2019-04-27T07:21:17.000Z,15.50
2019-04-27T07:23:39.168Z,15.50
2019-04-27T07:26:10.584Z,15.50
2019-04-27T07:28:43.900Z,15.40
2019-04-27T07:31:16.644Z,15.50
2019-04-27T07:33:49.474Z,15.50
2019-04-27T07:36:19.479Z,15.60
2019-04-27T07:38:52.426Z,15.60
2019-04-27T07:41:22.505Z,15.70
2019-04-27T07:44:14.015Z,15.70
2019-04-27T07:46:44.031Z,15.70
2019-04-27T07:49:19.032Z,15.80
2019-04-27T07:51:50.879Z,15.80
2019-04-27T07:54:22.412Z,15.80
2019-04-27T07:56:59.099Z,15.80
2019-04-27T07:59:34.584Z,15.80
2019-04-27T08:02:10.961Z,15.80
2019-04-27T08:04:47.880Z,15.80
2019-04-27T08:07:25.434Z,15.70
2019-04-27T08:10:01.590Z,15.60
2019-04-27T08:12:49.801Z,15.60
2019-04-27T08:15:36.227Z,15.60
2019-04-27T08:18:18.814Z,15.50
2019-04-27T08:20:53.050Z,15.50
2019-04-27T08:23:35.917Z,15.60
2019-04-27T08:26:19.692Z,15.60
2019-04-27T08:29:10.504Z,15.60
2019-04-27T08:31:53.028Z,15.50
2019-04-27T08:34:37.071Z,15.50
2019-04-27T08:40:30.922Z,15.50
2019-04-27T08:42:44.968Z,15.50
2019-04-27T08:45:26.478Z,15.50
2019-04-27T08:48:33.421Z,15.60
2019-04-27T08:50:55.746Z,15.60
2019-04-27T08:53:39.717Z,15.60
2019-04-27T08:56:19.481Z,15.60
2019-04-27T08:58:49.760Z,15.60
2019-04-27T09:01:20.741Z,15.60
2019-04-27T09:03:50.717Z,15.70
2019-04-27T09:06:20.606Z,15.70
2019-04-27T09:09:19.414Z,15.60
2019-04-27T09:11:57.382Z,15.70
2019-04-27T09:14:40.789Z,15.70
2019-04-27T09:17:32.143Z,15.70
2019-04-27T09:20:33.216Z,15.70
2019-04-27T09:23:13.426Z,15.70
2019-04-27T09:25:49.633Z,15.60
2019-04-27T09:28:29.850Z,15.60
2019-04-27T09:30:59.119Z,15.60
2019-04-27T09:33:28.967Z,15.60
2019-04-27T09:36:00.425Z,15.60
2019-04-27T09:38:50.435Z,15.50
2019-04-27T09:41:20.626Z,15.50
2019-04-27T09:43:57.034Z,15.40
2019-04-27T09:46:28.681Z,15.40
2019-04-27T09:49:01.709Z,15.40
2019-04-27T09:51:36.342Z,15.30
2019-04-27T09:54:08.897Z,15.30
2019-04-27T09:56:42.237Z,15.30
2019-04-27T09:59:26.581Z,15.20
2019-04-27T10:02:17.977Z,15.20
2019-04-27T10:07:35.827Z,15.10
2019-04-27T10:10:08.557Z,15.10
2019-04-27T10:12:40.929Z,15.10
2019-04-27T10:15:40.337Z,15.10
2019-04-27T10:18:23.572Z,15.10
2019-04-27T10:21:07.976Z,15.00
2019-04-27T10:23:38.290Z,15.00
2019-04-27T10:26:25.888Z,15.00
2019-04-27T10:28:53.689Z,15.00
2019-04-27T10:31:27.042Z,15.00
2019-04-27T10:33:59.618Z,15.00
2019-04-27T10:37:10.651Z,15.00
2019-04-27T10:39:59.553Z,15.00
2019-04-27T10:42:29.225Z,15.00
2019-04-27T10:45:17.329Z,15.00
2019-04-27T10:47:52.441Z,14.90
2019-04-27T10:50:27.303Z,14.90
2019-04-27T10:53:20.579Z,15.00
2019-04-27T10:55:57.710Z,15.00
2019-04-27T10:58:36.544Z,15.00
2019-04-27T11:01:15.600Z,14.90
2019-04-27T11:04:10.329Z,15.00
2019-04-27T11:06:42.380Z,14.90
2019-04-27T11:09:16.311Z,14.90
2019-04-27T11:11:49.210Z,15.00
2019-04-27T11:14:20.840Z,15.00
2019-04-27T11:16:55.973Z,15.00
2019-04-27T11:19:26.767Z,15.10
2019-04-27T11:22:07.117Z,15.20
2019-04-27T11:27:19.455Z,15.50
2019-04-27T11:29:49.299Z,15.60
2019-04-27T11:32:27.261Z,15.70
2019-04-27T11:35:10.702Z,15.70
2019-04-27T11:37:42.197Z,15.70
2019-04-27T11:40:20.816Z,15.80
2019-04-27T11:42:56.978Z,15.80
2019-04-27T11:45:28.488Z,15.80
2019-04-27T11:47:59.401Z,15.90
2019-04-27T11:50:29.776Z,15.90
2019-04-27T11:53:00.834Z,15.90
2019-04-27T11:55:36.951Z,15.90
2019-04-27T11:58:35.835Z,15.80
2019-04-27T12:04:46.584Z,15.70
2019-04-27T12:07:17.143Z,15.70
2019-04-27T12:16:15.627Z,15.60
2019-04-27T12:18:50.150Z,15.60
2019-04-27T12:21:36.232Z,15.50
2019-04-27T12:23:54.101Z,15.50
2019-04-27T12:26:32.806Z,15.50
2019-04-27T12:29:06.234Z,15.50
2019-04-27T12:31:43.834Z,15.50
2019-04-27T12:34:16.217Z,15.50
2019-04-27T12:36:53.534Z,15.50
2019-04-27T12:39:51.424Z,15.50
2019-04-27T12:42:29.059Z,15.40
2019-04-27T12:45:07.097Z,15.40
2019-04-27T12:50:17.078Z,15.40
2019-04-27T12:51:14.085Z,15.40
2019-04-27T12:54:13.581Z,15.30
2019-04-27T12:56:58.100Z,15.30
2019-04-27T12:59:47.532Z,15.20
2019-04-27T13:02:20.067Z,15.20
2019-04-27T13:04:50.364Z,15.20
2019-04-27T13:07:21.982Z,15.20
2019-04-27T13:09:59.789Z,15.10
2019-04-27T13:12:35.802Z,15.10
2019-04-27T13:15:11.033Z,15.10
2019-04-27T13:17:41.063Z,15.00
2019-04-27T13:20:16.486Z,15.00
2019-04-27T13:22:47.978Z,14.90
2019-04-27T13:25:20.064Z,14.80
2019-04-27T13:27:51.130Z,14.80
2019-04-27T13:30:21.414Z,14.80
2019-04-27T13:32:51.133Z,14.80
2019-04-27T13:35:20.888Z,14.80
2019-04-27T13:38:10.208Z,14.80
2019-04-27T13:40:41.156Z,14.80
2019-04-27T13:43:31.733Z,14.90
2019-04-27T13:46:19.153Z,14.80
2019-04-27T13:49:23.283Z,14.80
2019-04-27T13:51:57.631Z,14.70
2019-04-27T13:54:29.687Z,14.70
2019-04-27T13:57:01.545Z,14.70
2019-04-27T13:59:31.793Z,14.70
2019-04-27T14:02:02.277Z,14.70
2019-04-27T14:04:40.124Z,14.70
2019-04-27T14:07:59.069Z,14.70
2019-04-27T14:10:42.158Z,14.60
2019-04-27T14:13:12.385Z,14.60
2019-04-27T14:16:01.120Z,14.50
2019-04-27T14:18:33.608Z,14.50
2019-04-27T14:21:05.598Z,14.50
2019-04-27T14:23:35.508Z,14.50
2019-04-27T14:26:18.463Z,14.50
2019-04-27T14:28:43.346Z,14.50
2019-04-27T14:31:13.819Z,14.50
2019-04-27T14:37:42.301Z,14.90
2019-04-27T14:40:12.761Z,14.60
2019-04-27T14:42:53.793Z,14.60
2019-04-27T14:48:02.311Z,14.50
2019-04-27T14:53:04.367Z,14.80
2019-04-27T14:58:03.155Z,14.60
2019-04-27T15:00:32.863Z,14.50
2019-04-27T15:03:03.008Z,13.70
2019-04-27T15:05:32.829Z,14.40
2019-04-27T15:08:08.227Z,15.00
2019-04-27T15:10:36.326Z,14.30
2019-04-27T15:13:08.348Z,14.50
2019-04-27T15:15:38.669Z,14.30
2019-04-27T15:18:09.697Z,13.80
2019-04-27T15:20:44.570Z,13.90
2019-04-27T15:23:14.643Z,13.50
2019-04-27T15:25:46.916Z,15.00
2019-04-27T15:28:19.007Z,14.40
2019-04-27T15:31:24.895Z,15.10
2019-04-27T15:33:58.934Z,14.40
2019-04-27T15:36:41.128Z,14.40
2019-04-27T15:39:18.235Z,13.90
2019-04-27T15:57:10.005Z,14.00
2019-04-27T15:59:40.116Z,14.00
2019-04-27T16:02:12.212Z,14.50
2019-04-27T16:05:16.923Z,14.00
2019-04-27T16:08:23.982Z,14.10
2019-04-27T16:18:57.877Z,14.10
2019-04-27T16:21:31.443Z,14.20
2019-04-27T16:24:01.549Z,14.40
2019-04-27T16:26:34.330Z,14.20
2019-04-27T16:29:05.077Z,14.10
2019-04-27T16:36:47.835Z,14.00
2019-04-27T16:39:20.570Z,14.60
2019-04-27T16:41:52.318Z,13.80
2019-04-27T16:44:22.194Z,14.20
2019-04-27T16:46:52.037Z,14.00
2019-04-27T16:49:22.281Z,14.30
2019-04-27T16:51:52.071Z,13.90
2019-04-27T16:54:21.967Z,13.90
2019-04-27T16:59:41.013Z,14.00
2019-04-27T17:01:55.334Z,14.30
2019-04-27T17:04:29.110Z,13.70
2019-04-27T17:07:08.771Z,14.00
2019-04-27T17:09:42.162Z,14.30
2019-04-27T17:12:45.183Z,14.10
2019-04-27T17:15:10.657Z,13.60
2019-04-27T17:17:51.023Z,14.20
2019-04-27T17:20:21.450Z,13.90
2019-04-27T17:22:53.515Z,13.40
2019-04-27T17:25:24.998Z,13.80
2019-04-27T17:28:04.193Z,13.40
2019-04-27T17:38:33.008Z,13.90
2019-04-27T17:41:04.606Z,13.70
2019-04-27T17:46:03.365Z,13.00
2019-04-27T17:52:02.459Z,13.30
2019-04-27T17:53:45.308Z,13.80
2019-04-27T17:56:15.429Z,13.40
2019-04-27T17:58:45.275Z,13.10
2019-04-27T18:01:20.946Z,13.60
2019-04-27T18:03:59.993Z,13.60
2019-04-27T18:06:29.738Z,13.30
2019-04-27T18:12:01.115Z,13.30
2019-04-27T18:14:32.846Z,13.30
2019-04-27T18:19:53.009Z,13.00
2019-04-27T18:22:52.697Z,12.70
2019-04-27T18:25:48.419Z,12.50
2019-04-27T18:28:35.738Z,13.30
2019-04-27T18:34:21.574Z,13.30
2019-04-27T18:46:24.486Z,13.40
2019-04-27T18:49:18.164Z,13.40
2019-04-27T18:52:08.833Z,13.10
2019-04-27T18:57:15.291Z,13.70
2019-04-27T18:59:48.260Z,13.30
2019-04-27T19:02:23.311Z,13.90
2019-04-27T19:05:01.004Z,13.70
2019-04-27T19:10:04.505Z,13.40
2019-04-27T19:15:09.713Z,13.10
2019-04-27T19:23:49.273Z,13.10
2019-04-27T19:27:42.506Z,14.20
2019-04-27T20:17:51.504Z,13.10
2019-04-27T22:12:51.831Z,13.40
2019-04-27T22:51:29.603Z,12.60
